sensor_id;sensor_type;location;lat;lon;timestamp;pressure;altitude;pressure_sealevel;temperature;humidity
61645;BME280;47553;52.428;13.382;2022-10-28T00:00:42;101656.81;;;11.95;100.00
61645;BME280;47553;52.428;13.382;2022-10-28T00:02:44;101662.81;;;12.00;100.00
61645;BME280;47553;52.428;13.382;2022-10-28T00:04:45;101651.25;;;11.99;100.00
61645;BME280;47553;52.428;13.382;2022-10-28T00:06:47;101646.06;;;11.96;100.00
61645;BME280;47553;52.428;13.382;2022-10-28T00:08:49;101645.97;;;11.98;100.00
61645;BME280;47553;52.428;13.382;2022-10-28T00:10:59;101649.38;;;12.01;100.00
61645;BME280;47553;52.428;13.382;2022-10-28T00:13:01;101656.75;;;11.96;100.00
61645;BME280;47553;52.428;13.382;2022-10-28T00:15:05;101667.84;;;12.06;100.00
61645;BME280;47553;52.428;13.382;2022-10-28T00:17:06;101661.88;;;12.01;100.00
61645;BME280;47553;52.428;13.382;2022-10-28T00:19:12;101662.19;;;12.12;100.00
61645;BME280;47553;52.428;13.382;2022-10-28T00:21:16;101658.59;;;12.13;100.00
61645;BME280;47553;52.428;13.382;2022-10-28T00:23:18;101658.59;;;12.13;100.00
61645;BME280;47553;52.428;13.382;2022-10-28T00:25:19;101660.31;;;12.14;100.00
61645;BME280;47553;52.428;13.382;2022-10-28T00:27:21;101658.38;;;12.18;100.00
61645;BME280;47553;52.428;13.382;2022-10-28T00:29:23;101663.50;;;12.22;100.00
61645;BME280;47553;52.428;13.382;2022-10-28T00:31:27;101657.13;;;12.25;100.00
61645;BME280;47553;52.428;13.382;2022-10-28T00:33:29;101652.66;;;12.25;100.00
61645;BME280;47553;52.428;13.382;2022-10-28T00:35:31;101651.78;;;12.25;100.00
61645;BME280;47553;52.428;13.382;2022-10-28T00:37:32;101650.91;;;12.24;100.00
61645;BME280;47553;52.428;13.382;2022-10-28T00:39:34;101648.09;;;12.27;100.00
61645;BME280;47553;52.428;13.382;2022-10-28T00:41:37;101650.38;;;12.35;100.00
61645;BME280;47553;52.428;13.382;2022-10-28T00:43:40;101648.34;;;12.40;100.00
61645;BME280;47553;52.428;13.382;2022-10-28T00:45:42;101658.19;;;12.40;100.00
61645;BME280;47553;52.428;13.382;2022-10-28T00:47:48;101655.50;;;12.40;100.00
61645;BME280;47553;52.428;13.382;2022-10-28T00:50:06;101645.69;;;12.40;100.00
61645;BME280;47553;52.428;13.382;2022-10-28T00:52:18;101642.75;;;12.45;100.00
61645;BME280;47553;52.428;13.382;2022-10-28T00:54:22;101637.41;;;12.45;100.00
61645;BME280;47553;52.428;13.382;2022-10-28T00:56:25;101644.19;;;12.52;100.00
61645;BME280;47553;52.428;13.382;2022-10-28T00:58:28;101631.75;;;12.51;100.00
61645;BME280;47553;52.428;13.382;2022-10-28T01:00:30;101630.97;;;12.49;100.00
61645;BME280;47553;52.428;13.382;2022-10-28T01:02:33;101631.59;;;12.54;100.00
61645;BME280;47553;52.428;13.382;2022-10-28T01:04:39;101636.22;;;12.50;100.00
61645;BME280;47553;52.428;13.382;2022-10-28T01:06:42;101632.59;;;12.51;100.00
61645;BME280;47553;52.428;13.382;2022-10-28T01:08:44;101629.53;;;12.59;100.00
61645;BME280;47553;52.428;13.382;2022-10-28T01:11:06;101626.69;;;12.62;100.00
61645;BME280;47553;52.428;13.382;2022-10-28T01:13:19;101625.28;;;12.55;100.00
61645;BME280;47553;52.428;13.382;2022-10-28T01:15:32;101636.78;;;12.57;100.00
61645;BME280;47553;52.428;13.382;2022-10-28T01:17:51;101634.97;;;12.57;100.00
61645;BME280;47553;52.428;13.382;2022-10-28T01:22:34;101640.53;;;12.70;100.00
61645;BME280;47553;52.428;13.382;2022-10-28T01:24:55;101645.09;;;12.68;100.00
61645;BME280;47553;52.428;13.382;2022-10-28T01:27:28;101634.72;;;12.62;100.00
61645;BME280;47553;52.428;13.382;2022-10-28T01:30:02;101623.25;;;12.60;100.00
61645;BME280;47553;52.428;13.382;2022-10-28T01:32:12;101617.97;;;12.58;100.00
61645;BME280;47553;52.428;13.382;2022-10-28T01:34:22;101631.44;;;12.57;100.00
61645;BME280;47553;52.428;13.382;2022-10-28T01:36:34;101633.63;;;12.49;100.00
61645;BME280;47553;52.428;13.382;2022-10-28T01:38:45;101614.13;;;12.47;100.00
61645;BME280;47553;52.428;13.382;2022-10-28T01:40:56;101614.28;;;12.44;100.00
61645;BME280;47553;52.428;13.382;2022-10-28T01:43:07;101612.31;;;12.47;100.00
61645;BME280;47553;52.428;13.382;2022-10-28T01:45:14;101608.78;;;12.47;100.00
61645;BME280;47553;52.428;13.382;2022-10-28T01:47:21;101608.06;;;12.43;100.00
61645;BME280;47553;52.428;13.382;2022-10-28T01:49:26;101614.44;;;12.41;100.00
61645;BME280;47553;52.428;13.382;2022-10-28T01:51:32;101602.78;;;12.42;100.00
61645;BME280;47553;52.428;13.382;2022-10-28T01:53:37;101607.72;;;12.32;100.00
61645;BME280;47553;52.428;13.382;2022-10-28T01:55:41;101605.13;;;12.30;100.00
61645;BME280;47553;52.428;13.382;2022-10-28T01:57:47;101607.81;;;12.30;100.00
61645;BME280;47553;52.428;13.382;2022-10-28T01:59:51;101601.59;;;12.30;100.00
61645;BME280;47553;52.428;13.382;2022-10-28T02:01:53;101599.84;;;12.29;100.00
61645;BME280;47553;52.428;13.382;2022-10-28T02:03:59;101595.53;;;12.26;100.00
61645;BME280;47553;52.428;13.382;2022-10-28T02:06:01;101601.66;;;12.28;100.00
61645;BME280;47553;52.428;13.382;2022-10-28T02:08:16;101594.59;;;12.27;100.00
61645;BME280;47553;52.428;13.382;2022-10-28T02:10:23;101592.06;;;12.24;100.00
61645;BME280;47553;52.428;13.382;2022-10-28T02:12:32;101584.22;;;12.21;100.00
61645;BME280;47553;52.428;13.382;2022-10-28T02:14:54;101585.22;;;12.19;100.00
61645;BME280;47553;52.428;13.382;2022-10-28T02:17:02;101588.09;;;12.14;100.00
61645;BME280;47553;52.428;13.382;2022-10-28T02:19:14;101591.81;;;12.12;100.00
61645;BME280;47553;52.428;13.382;2022-10-28T02:21:22;101593.53;;;12.13;100.00
61645;BME280;47553;52.428;13.382;2022-10-28T02:23:40;101591.81;;;12.12;100.00
61645;BME280;47553;52.428;13.382;2022-10-28T02:25:48;101595.44;;;12.11;100.00
61645;BME280;47553;52.428;13.382;2022-10-28T02:27:55;101596.00;;;12.17;100.00
61645;BME280;47553;52.428;13.382;2022-10-28T02:30:02;101584.19;;;12.04;100.00
61645;BME280;47553;52.428;13.382;2022-10-28T02:32:07;101596.53;;;12.07;100.00
61645;BME280;47553;52.428;13.382;2022-10-28T02:34:18;101593.69;;;12.10;100.00
61645;BME280;47553;52.428;13.382;2022-10-28T02:36:24;101594.72;;;12.07;100.00
61645;BME280;47553;52.428;13.382;2022-10-28T02:38:31;101605.41;;;12.07;100.00
61645;BME280;47553;52.428;13.382;2022-10-28T02:40:35;101605.25;;;12.10;100.00
61645;BME280;47553;52.428;13.382;2022-10-28T02:42:40;101594.56;;;12.10;100.00
61645;BME280;47553;52.428;13.382;2022-10-28T02:44:48;101586.47;;;12.12;100.00
61645;BME280;47553;52.428;13.382;2022-10-28T02:46:51;101591.81;;;12.12;100.00
61645;BME280;47553;52.428;13.382;2022-10-28T02:48:57;101591.03;;;12.10;100.00
61645;BME280;47553;52.428;13.382;2022-10-28T02:51:06;101581.09;;;12.12;100.00
61645;BME280;47553;52.428;13.382;2022-10-28T02:53:13;101581.81;;;12.15;100.00
61645;BME280;47553;52.428;13.382;2022-10-28T02:55:17;101579.00;;;12.18;100.00
61645;BME280;47553;52.428;13.382;2022-10-28T02:57:22;101579.53;;;12.08;100.00
61645;BME280;47553;52.428;13.382;2022-10-28T02:59:24;101576.78;;;12.09;100.00
61645;BME280;47553;52.428;13.382;2022-10-28T03:01:26;101585.03;;;12.04;100.00
61645;BME280;47553;52.428;13.382;2022-10-28T03:03:28;101586.22;;;11.99;100.00
61645;BME280;47553;52.428;13.382;2022-10-28T03:05:29;101586.06;;;12.02;100.00
61645;BME280;47553;52.428;13.382;2022-10-28T03:07:32;101580.56;;;12.05;100.00
61645;BME280;47553;52.428;13.382;2022-10-28T03:09:34;101575.69;;;11.96;100.00
61645;BME280;47553;52.428;13.382;2022-10-28T03:11:35;101586.94;;;12.02;100.00
61645;BME280;47553;52.428;13.382;2022-10-28T03:13:37;101590.38;;;12.04;100.00
61645;BME280;47553;52.428;13.382;2022-10-28T03:15:38;101591.25;;;12.05;100.00
61645;BME280;47553;52.428;13.382;2022-10-28T03:17:40;101585.91;;;12.05;100.00
61645;BME280;47553;52.428;13.382;2022-10-28T03:19:42;101590.94;;;12.11;100.00
61645;BME280;47553;52.428;13.382;2022-10-28T03:21:43;101587.31;;;12.12;100.00
61645;BME280;47553;52.428;13.382;2022-10-28T03:23:46;101578.94;;;12.20;100.00
61645;BME280;47553;52.428;13.382;2022-10-28T03:25:48;101585.31;;;12.17;100.00
61645;BME280;47553;52.428;13.382;2022-10-28T03:27:49;101575.25;;;12.22;100.00
61645;BME280;47553;52.428;13.382;2022-10-28T03:29:51;101584.13;;;12.23;100.00
61645;BME280;47553;52.428;13.382;2022-10-28T03:31:52;101576.34;;;12.18;100.00
61645;BME280;47553;52.428;13.382;2022-10-28T03:33:54;101587.31;;;12.12;100.00
61645;BME280;47553;52.428;13.382;2022-10-28T03:35:55;101582.06;;;12.11;100.00
61645;BME280;47553;52.428;13.382;2022-10-28T03:37:59;101584.03;;;12.07;100.00
61645;BME280;47553;52.428;13.382;2022-10-28T03:40:02;101596.28;;;12.11;100.00
61645;BME280;47553;52.428;13.382;2022-10-28T03:42:04;101588.72;;;12.02;100.00
61645;BME280;47553;52.428;13.382;2022-10-28T03:44:06;101590.00;;;11.95;100.00
61645;BME280;47553;52.428;13.382;2022-10-28T03:46:07;101590.28;;;11.89;100.00
61645;BME280;47553;52.428;13.382;2022-10-28T03:48:09;101587.59;;;11.71;100.00
61645;BME280;47553;52.428;13.382;2022-10-28T03:50:10;101585.88;;;11.70;100.00
61645;BME280;47553;52.428;13.382;2022-10-28T03:52:12;101589.47;;;11.69;100.00
61645;BME280;47553;52.428;13.382;2022-10-28T03:54:14;101590.91;;;11.77;100.00
61645;BME280;47553;52.428;13.382;2022-10-28T03:56:16;101596.84;;;11.64;100.00
61645;BME280;47553;52.428;13.382;2022-10-28T03:58:18;101589.78;;;11.63;100.00
61645;BME280;47553;52.428;13.382;2022-10-28T04:00:20;101593.38;;;11.62;100.00
61645;BME280;47553;52.428;13.382;2022-10-28T04:02:22;101585.00;;;11.70;100.00
61645;BME280;47553;52.428;13.382;2022-10-28T04:04:23;101582.31;;;11.70;100.00
61645;BME280;47553;52.428;13.382;2022-10-28T04:06:31;101586.81;;;11.69;100.00
61645;BME280;47553;52.428;13.382;2022-10-28T04:08:33;101578.63;;;11.72;100.00
61645;BME280;47553;52.428;13.382;2022-10-28T04:10:34;101577.16;;;11.84;100.00
61645;BME280;47553;52.428;13.382;2022-10-28T04:12:38;101568.75;;;11.75;100.00
61645;BME280;47553;52.428;13.382;2022-10-28T04:14:39;101575.09;;;11.72;100.00
61645;BME280;47553;52.428;13.382;2022-10-28T04:16:41;101577.78;;;11.72;100.00
61645;BME280;47553;52.428;13.382;2022-10-28T04:18:42;101574.16;;;11.73;100.00
61645;BME280;47553;52.428;13.382;2022-10-28T04:20:44;101578.50;;;11.76;100.00
61645;BME280;47553;52.428;13.382;2022-10-28T04:22:46;101583.03;;;11.73;100.00
61645;BME280;47553;52.428;13.382;2022-10-28T04:24:47;101582.25;;;11.71;100.00
61645;BME280;47553;52.428;13.382;2022-10-28T04:26:49;101586.72;;;11.71;100.00
61645;BME280;47553;52.428;13.382;2022-10-28T04:28:52;101583.28;;;11.69;100.00
61645;BME280;47553;52.428;13.382;2022-10-28T04:30:54;101584.84;;;11.73;100.00
61645;BME280;47553;52.428;13.382;2022-10-28T04:32:55;101572.66;;;11.67;100.00
61645;BME280;47553;52.428;13.382;2022-10-28T04:34:57;101570.34;;;11.60;100.00
61645;BME280;47553;52.428;13.382;2022-10-28T04:36:58;101570.34;;;11.60;100.00
61645;BME280;47553;52.428;13.382;2022-10-28T04:39:01;101564.78;;;11.64;100.00
61645;BME280;47553;52.428;13.382;2022-10-28T04:41:04;101563.25;;;11.59;100.00
61645;BME280;47553;52.428;13.382;2022-10-28T04:43:06;101557.84;;;11.60;100.00
61645;BME280;47553;52.428;13.382;2022-10-28T04:45:12;101556.56;;;11.69;100.00
61645;BME280;47553;52.428;13.382;2022-10-28T04:47:13;101560.88;;;11.71;100.00
61645;BME280;47553;52.428;13.382;2022-10-28T04:49:15;101535.03;;;11.53;100.00
61645;BME280;47553;52.428;13.382;2022-10-28T04:51:16;101560.09;;;11.69;100.00
61645;BME280;47553;52.428;13.382;2022-10-28T04:53:18;101562.91;;;11.66;100.00
61645;BME280;47553;52.428;13.382;2022-10-28T04:55:19;101562.91;;;11.66;100.00
61645;BME280;47553;52.428;13.382;2022-10-28T04:57:21;101564.50;;;11.70;100.00
61645;BME280;47553;52.428;13.382;2022-10-28T04:59:22;101558.84;;;11.77;100.00
61645;BME280;47553;52.428;13.382;2022-10-28T05:01:25;101556.97;;;11.79;100.00
61645;BME280;47553;52.428;13.382;2022-10-28T05:03:27;101551.59;;;11.79;100.00
61645;BME280;47553;52.428;13.382;2022-10-28T05:05:28;101554.59;;;11.72;100.00
61645;BME280;47553;52.428;13.382;2022-10-28T05:07:30;101569.03;;;11.68;100.00
61645;BME280;47553;52.428;13.382;2022-10-28T05:09:32;101563.94;;;11.64;100.00
61645;BME280;47553;52.428;13.382;2022-10-28T05:11:33;101552.94;;;11.70;100.00
61645;BME280;47553;52.428;13.382;2022-10-28T05:13:35;101550.34;;;11.68;100.00
61645;BME280;47553;52.428;13.382;2022-10-28T05:15:36;101554.97;;;11.65;100.00
61645;BME280;47553;52.428;13.382;2022-10-28T05:17:40;101565.94;;;11.59;100.00
61645;BME280;47553;52.428;13.382;2022-10-28T05:19:44;101568.69;;;11.57;100.00
61645;BME280;47553;52.428;13.382;2022-10-28T05:21:45;101578.50;;;11.57;100.00
61645;BME280;47553;52.428;13.382;2022-10-28T05:23:47;101560.81;;;11.54;100.00
61645;BME280;47553;52.428;13.382;2022-10-28T05:25:49;101558.78;;;11.59;100.00
61645;BME280;47553;52.428;13.382;2022-10-28T05:27:51;101549.03;;;11.58;100.00
61645;BME280;47553;52.428;13.382;2022-10-28T05:29:52;101544.47;;;11.60;100.00
61645;BME280;47553;52.428;13.382;2022-10-28T05:31:54;101538.56;;;11.54;100.00
61645;BME280;47553;52.428;13.382;2022-10-28T05:33:57;101551.44;;;11.64;100.00
61645;BME280;47553;52.428;13.382;2022-10-28T05:35:59;101547.16;;;11.60;100.00
61645;BME280;47553;52.428;13.382;2022-10-28T05:38:01;101549.19;;;11.55;100.00
61645;BME280;47553;52.428;13.382;2022-10-28T05:40:03;101553.75;;;11.53;100.00
61645;BME280;47553;52.428;13.382;2022-10-28T05:42:04;101543.19;;;11.50;100.00
61645;BME280;47553;52.428;13.382;2022-10-28T05:44:06;101551.06;;;11.53;100.00
61645;BME280;47553;52.428;13.382;2022-10-28T05:46:08;101544.00;;;11.52;100.00
61645;BME280;47553;52.428;13.382;2022-10-28T05:48:09;101541.03;;;11.58;100.00
61645;BME280;47553;52.428;13.382;2022-10-28T05:50:14;101547.03;;;11.63;100.00
61645;BME280;47553;52.428;13.382;2022-10-28T05:52:15;101537.13;;;11.65;100.00
61645;BME280;47553;52.428;13.382;2022-10-28T05:54:17;101536.19;;;11.66;100.00
61645;BME280;47553;52.428;13.382;2022-10-28T05:56:19;101538.47;;;11.74;100.00
61645;BME280;47553;52.428;13.382;2022-10-28T05:58:20;101540.06;;;11.78;100.00
61645;BME280;47553;52.428;13.382;2022-10-28T06:00:26;101540.75;;;11.82;100.00
61645;BME280;47553;52.428;13.382;2022-10-28T06:02:27;101540.75;;;11.82;100.00
61645;BME280;47553;52.428;13.382;2022-10-28T06:04:29;101552.72;;;11.92;100.00
61645;BME280;47553;52.428;13.382;2022-10-28T06:06:32;101548.41;;;11.89;100.00
61645;BME280;47553;52.428;13.382;2022-10-28T06:08:33;101539.97;;;11.97;100.00
61645;BME280;47553;52.428;13.382;2022-10-28T06:10:35;101523.78;;;12.00;100.00
61645;BME280;47553;52.428;13.382;2022-10-28T06:12:37;101536.84;;;12.06;100.00
61645;BME280;47553;52.428;13.382;2022-10-28T06:14:38;101534.00;;;12.09;100.00
61645;BME280;47553;52.428;13.382;2022-10-28T06:16:40;101536.50;;;12.12;100.00
61645;BME280;47553;52.428;13.382;2022-10-28T06:18:41;101537.16;;;12.17;100.00
61645;BME280;47553;52.428;13.382;2022-10-28T06:20:43;101542.19;;;12.23;100.00
61645;BME280;47553;52.428;13.382;2022-10-28T06:22:50;101541.41;;;12.21;100.00
61645;BME280;47553;52.428;13.382;2022-10-28T06:24:52;101536.06;;;12.21;100.00
61645;BME280;47553;52.428;13.382;2022-10-28T06:26:54;101529.13;;;12.34;100.00
61645;BME280;47553;52.428;13.382;2022-10-28T06:28:55;101532.28;;;12.43;100.00
61645;BME280;47553;52.428;13.382;2022-10-28T06:31:00;101535.75;;;12.45;100.00
61645;BME280;47553;52.428;13.382;2022-10-28T06:33:02;101537.81;;;12.40;100.00
61645;BME280;47553;52.428;13.382;2022-10-28T06:35:04;101527.09;;;12.40;100.00
61645;BME280;47553;52.428;13.382;2022-10-28T06:37:05;101529.53;;;12.44;100.00
61645;BME280;47553;52.428;13.382;2022-10-28T06:39:08;101525.59;;;12.51;100.00
61645;BME280;47553;52.428;13.382;2022-10-28T06:41:10;101525.75;;;12.48;100.00
61645;BME280;47553;52.428;13.382;2022-10-28T06:43:11;101529.97;;;12.52;100.00
61645;BME280;47553;52.428;13.382;2022-10-28T06:45:13;101525.75;;;12.48;100.00
61645;BME280;47553;52.428;13.382;2022-10-28T06:47:15;101526.94;;;12.43;100.00
61645;BME280;47553;52.428;13.382;2022-10-28T06:49:16;101525.81;;;12.47;100.00
61645;BME280;47553;52.428;13.382;2022-10-28T06:51:18;101518.75;;;12.46;100.00
61645;BME280;47553;52.428;13.382;2022-10-28T06:53:19;101524.03;;;12.47;100.00
61645;BME280;47553;52.428;13.382;2022-10-28T06:55:22;101532.81;;;12.49;100.00
61645;BME280;47553;52.428;13.382;2022-10-28T06:57:24;101543.56;;;12.65;100.00
61645;BME280;47553;52.428;13.382;2022-10-28T06:59:29;101539.63;;;12.72;100.00
61645;BME280;47553;52.428;13.382;2022-10-28T07:01:31;101536.94;;;12.72;100.00
61645;BME280;47553;52.428;13.382;2022-10-28T07:03:33;101541.16;;;12.76;100.00
61645;BME280;47553;52.428;13.382;2022-10-28T07:05:34;101529.50;;;12.77;100.00
61645;BME280;47553;52.428;13.382;2022-10-28T07:07:36;101530.13;;;12.82;100.00
61645;BME280;47553;52.428;13.382;2022-10-28T07:09:38;101541.53;;;12.86;100.00
61645;BME280;47553;52.428;13.382;2022-10-28T07:11:41;101544.22;;;13.02;100.00
61645;BME280;47553;52.428;13.382;2022-10-28T07:13:42;101540.25;;;13.09;100.00
61645;BME280;47553;52.428;13.382;2022-10-28T07:15:50;101539.94;;;13.15;100.00
61645;BME280;47553;52.428;13.382;2022-10-28T07:17:52;101551.53;;;13.31;100.00
61645;BME280;47553;52.428;13.382;2022-10-28T07:19:56;101544.00;;;13.38;100.00
61645;BME280;47553;52.428;13.382;2022-10-28T07:21:57;101539.59;;;13.37;100.00
61645;BME280;47553;52.428;13.382;2022-10-28T07:23:59;101541.59;;;13.49;100.00
61645;BME280;47553;52.428;13.382;2022-10-28T07:26:00;101547.66;;;13.52;100.00
61645;BME280;47553;52.428;13.382;2022-10-28T07:28:04;101538.47;;;13.56;100.00
61645;BME280;47553;52.428;13.382;2022-10-28T07:30:07;101546.94;;;13.65;100.00
61645;BME280;47553;52.428;13.382;2022-10-28T07:32:08;101557.03;;;13.75;100.00
61645;BME280;47553;52.428;13.382;2022-10-28T07:34:10;101548.53;;;13.83;100.00
61645;BME280;47553;52.428;13.382;2022-10-28T07:36:11;101543.53;;;13.92;100.00
61645;BME280;47553;52.428;13.382;2022-10-28T07:38:13;101534.44;;;13.95;100.00
61645;BME280;47553;52.428;13.382;2022-10-28T07:40:18;101525.94;;;14.03;100.00
61645;BME280;47553;52.428;13.382;2022-10-28T07:42:20;101523.16;;;14.04;100.00
61645;BME280;47553;52.428;13.382;2022-10-28T07:44:23;101522.78;;;14.10;100.00
61645;BME280;47553;52.428;13.382;2022-10-28T07:46:25;101517.50;;;14.09;100.00
61645;BME280;47553;52.428;13.382;2022-10-28T07:48:26;101519.13;;;14.11;100.00
61645;BME280;47553;52.428;13.382;2022-10-28T07:50:28;101529.81;;;14.27;100.00
61645;BME280;47553;52.428;13.382;2022-10-28T07:52:30;101525.09;;;14.31;100.00
61645;BME280;47553;52.428;13.382;2022-10-28T07:54:34;101521.28;;;14.35;100.00
61645;BME280;47553;52.428;13.382;2022-10-28T07:56:37;101523.41;;;14.44;100.00
61645;BME280;47553;52.428;13.382;2022-10-28T07:58:40;101519.19;;;14.40;100.00
61645;BME280;47553;52.428;13.382;2022-10-28T08:00:43;101526.47;;;14.38;100.00
61645;BME280;47553;52.428;13.382;2022-10-28T08:02:45;101534.31;;;14.41;100.00
61645;BME280;47553;52.428;13.382;2022-10-28T08:04:47;101529.72;;;14.43;100.00
61645;BME280;47553;52.428;13.382;2022-10-28T08:06:48;101531.81;;;14.38;100.00
61645;BME280;47553;52.428;13.382;2022-10-28T08:08:53;101532.78;;;14.37;100.00
61645;BME280;47553;52.428;13.382;2022-10-28T08:10:55;101532.00;;;14.35;100.00
61645;BME280;47553;52.428;13.382;2022-10-28T08:12:57;101541.81;;;14.50;100.00
61645;BME280;47553;52.428;13.382;2022-10-28T08:14:59;101521.97;;;14.52;100.00
61645;BME280;47553;52.428;13.382;2022-10-28T08:17:01;101540.56;;;14.55;100.00
61645;BME280;47553;52.428;13.382;2022-10-28T08:19:03;101535.84;;;14.61;100.00
61645;BME280;47553;52.428;13.382;2022-10-28T08:21:09;101552.31;;;14.69;100.00
61645;BME280;47553;52.428;13.382;2022-10-28T08:23:11;101557.59;;;14.84;100.00
61645;BME280;47553;52.428;13.382;2022-10-28T08:25:13;101546.28;;;14.94;100.00
61645;BME280;47553;52.428;13.382;2022-10-28T08:27:15;101554.63;;;14.89;100.00
61645;BME280;47553;52.428;13.382;2022-10-28T08:29:16;101545.69;;;15.03;100.00
61645;BME280;47553;52.428;13.382;2022-10-28T08:31:18;101543.38;;;15.11;100.00
61645;BME280;47553;52.428;13.382;2022-10-28T08:33:21;101552.56;;;15.35;100.00
61645;BME280;47553;52.428;13.382;2022-10-28T08:35:22;101545.56;;;15.60;100.00
61645;BME280;47553;52.428;13.382;2022-10-28T08:37:24;101545.97;;;15.80;100.00
61645;BME280;47553;52.428;13.382;2022-10-28T08:39:25;101536.00;;;15.95;100.00
61645;BME280;47553;52.428;13.382;2022-10-28T08:41:31;101545.66;;;16.25;100.00
61645;BME280;47553;52.428;13.382;2022-10-28T08:43:48;101545.25;;;16.31;100.00
61645;BME280;47553;52.428;13.382;2022-10-28T08:46:00;101531.25;;;16.26;100.00
61645;BME280;47553;52.428;13.382;2022-10-28T08:48:13;101534.81;;;16.39;100.00
61645;BME280;47553;52.428;13.382;2022-10-28T08:50:19;101522.53;;;16.22;100.00
61645;BME280;47553;52.428;13.382;2022-10-28T08:52:30;101517.34;;;16.19;100.00
61645;BME280;47553;52.428;13.382;2022-10-28T08:54:36;101515.94;;;16.13;100.00
61645;BME280;47553;52.428;13.382;2022-10-28T08:56:41;101524.97;;;16.12;100.00
61645;BME280;47553;52.428;13.382;2022-10-28T08:58:44;101523.25;;;16.11;100.00
61645;BME280;47553;52.428;13.382;2022-10-28T09:00:50;101519.59;;;16.12;100.00
61645;BME280;47553;52.428;13.382;2022-10-28T09:03:07;101539.09;;;16.16;100.00
61645;BME280;47553;52.428;13.382;2022-10-28T09:05:20;101528.13;;;16.32;100.00
61645;BME280;47553;52.428;13.382;2022-10-28T09:07:23;101528.78;;;16.48;100.00
61645;BME280;47553;52.428;13.382;2022-10-28T09:09:25;101528.13;;;16.57;100.00
61645;BME280;47553;52.428;13.382;2022-10-28T09:12:02;101529.63;;;16.61;100.00
61645;BME280;47553;52.428;13.382;2022-10-28T09:14:14;101532.66;;;16.69;100.00
61645;BME280;47553;52.428;13.382;2022-10-28T09:16:27;101531.16;;;16.78;100.00
61645;BME280;47553;52.428;13.382;2022-10-28T09:18:45;101523.19;;;16.89;100.00
61645;BME280;47553;52.428;13.382;2022-10-28T09:20:54;101522.81;;;17.06;100.00
61645;BME280;47553;52.428;13.382;2022-10-28T09:22:57;101525.69;;;17.16;100.00
61645;BME280;47553;52.428;13.382;2022-10-28T09:25:01;101524.50;;;17.20;100.00
61645;BME280;47553;52.428;13.382;2022-10-28T09:27:08;101523.31;;;17.24;100.00
61645;BME280;47553;52.428;13.382;2022-10-28T09:29:37;101518.72;;;17.37;100.00
61645;BME280;47553;52.428;13.382;2022-10-28T09:31:47;101514.81;;;17.41;100.00
61645;BME280;47553;52.428;13.382;2022-10-28T09:34:01;101515.84;;;17.52;100.00
61645;BME280;47553;52.428;13.382;2022-10-28T09:36:12;101512.63;;;17.47;100.00
61645;BME280;47553;52.428;13.382;2022-10-28T09:38:24;101517.81;;;17.50;100.00
61645;BME280;47553;52.428;13.382;2022-10-28T09:40:29;101518.19;;;17.56;100.00
61645;BME280;47553;52.428;13.382;2022-10-28T09:42:39;101510.34;;;17.66;100.00
61645;BME280;47553;52.428;13.382;2022-10-28T09:44:46;101499.75;;;17.87;99.13
61645;BME280;47553;52.428;13.382;2022-10-28T09:46:54;101499.91;;;17.96;97.84
61645;BME280;47553;52.428;13.382;2022-10-28T09:48:58;101498.91;;;17.97;98.60
61645;BME280;47553;52.428;13.382;2022-10-28T09:51:00;101505.06;;;17.99;98.94
61645;BME280;47553;52.428;13.382;2022-10-28T09:53:08;101506.06;;;18.10;98.20
61645;BME280;47553;52.428;13.382;2022-10-28T09:55:18;101507.66;;;18.12;96.76
61645;BME280;47553;52.428;13.382;2022-10-28T09:57:27;101504.63;;;18.17;97.07
61645;BME280;47553;52.428;13.382;2022-10-28T09:59:29;101511.25;;;18.24;96.08
61645;BME280;47553;52.428;13.382;2022-10-28T10:01:33;101504.31;;;18.32;96.71
61645;BME280;47553;52.428;13.382;2022-10-28T10:03:38;101502.47;;;18.33;97.26
61645;BME280;47553;52.428;13.382;2022-10-28T10:05:42;101500.25;;;18.38;96.53
61645;BME280;47553;52.428;13.382;2022-10-28T10:07:48;101491.19;;;18.39;96.96
61645;BME280;47553;52.428;13.382;2022-10-28T10:09:53;101499.78;;;18.44;95.63
61645;BME280;47553;52.428;13.382;2022-10-28T10:11:59;101492.66;;;18.43;96.51
61645;BME280;47553;52.428;13.382;2022-10-28T10:14:08;101499.94;;;18.54;96.81
61645;BME280;47553;52.428;13.382;2022-10-28T10:16:14;101501.78;;;18.64;95.37
61645;BME280;47553;52.428;13.382;2022-10-28T10:18:31;101495.88;;;18.71;95.06
61645;BME280;47553;52.428;13.382;2022-10-28T10:20:47;101490.22;;;18.74;94.23
61645;BME280;47553;52.428;13.382;2022-10-28T10:22:49;101496.72;;;18.82;93.31
61645;BME280;47553;52.428;13.382;2022-10-28T10:24:50;101493.41;;;18.79;93.22
61645;BME280;47553;52.428;13.382;2022-10-28T10:26:54;101493.16;;;18.82;93.48
61645;BME280;47553;52.428;13.382;2022-10-28T10:28:58;101488.25;;;18.87;92.82
61645;BME280;47553;52.428;13.382;2022-10-28T10:31:02;101489.97;;;18.88;92.26
61645;BME280;47553;52.428;13.382;2022-10-28T10:33:05;101490.47;;;18.93;91.55
61645;BME280;47553;52.428;13.382;2022-10-28T10:35:17;101486.50;;;18.97;90.84
61645;BME280;47553;52.428;13.382;2022-10-28T10:37:21;101482.09;;;19.07;91.48